createdAt,value
2018-11-11T00:00:43.419Z,6.23
2018-11-11T00:03:12.820Z,9.50
2018-11-11T00:05:42.024Z,8.43
2018-11-11T00:08:11.288Z,8.47
2018-11-11T00:10:40.828Z,8.27
2018-11-11T00:13:11.287Z,5.37
2018-11-11T00:15:40.645Z,8.00
2018-11-11T00:18:10.137Z,12.40
2018-11-11T00:20:40.076Z,8.40
2018-11-11T00:23:09.919Z,11.50
2018-11-11T00:25:39.145Z,8.20
2018-11-11T00:28:08.778Z,10.07
2018-11-11T00:30:38.209Z,15.20
2018-11-11T00:33:08.075Z,8.63
2018-11-11T00:35:37.968Z,14.43
2018-11-11T00:38:07.434Z,16.83
2018-11-11T00:40:37.398Z,23.00
2018-11-11T00:43:07.132Z,19.93
2018-11-11T00:45:36.567Z,12.80
2018-11-11T00:48:05.988Z,11.33
2018-11-11T00:50:36.132Z,8.20
2018-11-11T00:53:06.110Z,13.53
2018-11-11T00:55:40.457Z,7.43
2018-11-11T00:58:09.822Z,7.13
2018-11-11T01:00:39.253Z,11.13
2018-11-11T01:03:08.555Z,11.07
2018-11-11T01:05:38.070Z,8.90
2018-11-11T01:08:08.372Z,13.40
2018-11-11T01:10:37.726Z,15.57
2018-11-11T01:13:07.251Z,9.37
2018-11-11T01:15:36.711Z,17.20
2018-11-11T01:18:06.090Z,16.50
2018-11-11T01:20:35.490Z,207.80
2018-11-11T01:23:05.020Z,28.17
2018-11-11T01:25:34.572Z,7.40
2018-11-11T01:28:03.950Z,5.90
2018-11-11T01:30:33.406Z,5.20
2018-11-11T01:33:02.900Z,7.70
2018-11-11T01:35:32.911Z,5.27
2018-11-11T01:38:02.385Z,4.93
2018-11-11T01:40:32.542Z,5.07
2018-11-11T01:43:01.922Z,18.70
2018-11-11T01:45:31.554Z,56.40
2018-11-11T01:48:01.739Z,15.63
2018-11-11T01:50:31.018Z,37.77
2018-11-11T01:53:00.436Z,19.40
2018-11-11T01:55:29.936Z,29.30
2018-11-11T01:57:59.403Z,33.17
2018-11-11T02:00:28.987Z,48.50
2018-11-11T02:02:58.253Z,14.50
2018-11-11T02:05:27.829Z,6.07
2018-11-11T02:07:58.400Z,10.40
2018-11-11T02:10:27.879Z,6.30
2018-11-11T02:12:57.318Z,7.93
2018-11-11T02:15:26.640Z,5.13
2018-11-11T02:17:55.883Z,11.43
2018-11-11T02:20:25.564Z,5.77
2018-11-11T02:22:54.842Z,4.00
2018-11-11T02:25:24.256Z,4.53
2018-11-11T02:27:53.567Z,8.70
2018-11-11T02:30:22.991Z,8.20
2018-11-11T02:32:52.395Z,5.37
2018-11-11T02:35:21.909Z,8.23
2018-11-11T02:37:51.244Z,20.00
2018-11-11T02:40:21.012Z,6.63
2018-11-11T02:42:51.496Z,6.33
2018-11-11T02:45:21.200Z,3.93
2018-11-11T02:47:51.465Z,5.70
2018-11-11T02:50:20.922Z,6.60
2018-11-11T02:52:50.354Z,9.43
2018-11-11T02:55:19.663Z,6.10
2018-11-11T02:57:49.251Z,4.57
2018-11-11T03:00:20.004Z,6.10
2018-11-11T03:02:49.801Z,6.80
2018-11-11T03:05:19.780Z,5.30
2018-11-11T03:07:49.379Z,7.53
2018-11-11T03:10:19.275Z,8.57
2018-11-11T03:12:50.056Z,5.80
2018-11-11T03:15:19.701Z,7.80
2018-11-11T03:17:49.591Z,10.20
2018-11-11T03:20:19.366Z,3.97
2018-11-11T03:22:48.614Z,11.73
2018-11-11T03:25:18.585Z,5.27
2018-11-11T03:27:47.973Z,7.90
2018-11-11T03:30:18.258Z,9.70
2018-11-11T03:32:48.357Z,4.33
2018-11-11T03:35:17.844Z,4.93
2018-11-11T03:37:47.343Z,3.83
2018-11-11T03:40:18.155Z,4.80
2018-11-11T03:42:47.832Z,3.70
2018-11-11T03:45:18.464Z,3.37
2018-11-11T03:47:48.669Z,4.23
2018-11-11T03:50:18.037Z,5.20
2018-11-11T03:52:47.524Z,3.70
2018-11-11T03:55:17.218Z,9.50
2018-11-11T03:57:46.581Z,4.87
2018-11-11T04:00:16.678Z,3.93
2018-11-11T04:02:46.943Z,5.83
2018-11-11T04:05:17.461Z,7.23
2018-11-11T04:07:46.900Z,10.60
2018-11-11T04:10:17.476Z,7.30
2018-11-11T04:12:47.247Z,5.77
2018-11-11T04:15:17.964Z,6.40
2018-11-11T04:17:47.475Z,5.67
2018-11-11T04:20:18.130Z,11.93
2018-11-11T04:22:47.534Z,12.67
2018-11-11T04:25:17.788Z,55.93
2018-11-11T04:27:47.120Z,28.43
2018-11-11T04:30:16.741Z,11.87
2018-11-11T04:32:46.019Z,38.47
2018-11-11T04:35:15.306Z,19.77
2018-11-11T04:37:44.700Z,11.77
2018-11-11T04:40:14.382Z,18.47
2018-11-11T04:42:43.742Z,27.47
2018-11-11T04:45:16.275Z,27.07
2018-11-11T04:47:46.354Z,6.33
2018-11-11T04:50:16.725Z,7.83
2018-11-11T04:52:46.765Z,11.83
2018-11-11T04:55:16.086Z,10.17
2018-11-11T04:57:46.215Z,12.30
2018-11-11T05:00:16.074Z,9.47
2018-11-11T05:02:45.219Z,8.30
2018-11-11T05:05:15.194Z,7.03
2018-11-11T05:07:44.777Z,5.63
2018-11-11T05:10:14.425Z,17.57
2018-11-11T05:12:43.836Z,8.47
2018-11-11T05:15:13.946Z,7.53
2018-11-11T05:17:43.756Z,10.80
2018-11-11T05:20:13.702Z,7.13
2018-11-11T05:22:43.685Z,9.33
2018-11-11T05:25:14.535Z,10.60
2018-11-11T05:27:44.369Z,17.47
2018-11-11T05:30:14.364Z,7.80
2018-11-11T05:32:44.015Z,12.90
2018-11-11T05:35:14.528Z,9.33
2018-11-11T05:37:44.171Z,18.17
2018-11-11T05:40:14.143Z,55.43
2018-11-11T05:42:44.205Z,63.00
2018-11-11T05:45:14.708Z,28.27
2018-11-11T05:47:47.755Z,65.10
2018-11-11T05:50:17.629Z,61.47
2018-11-11T05:52:47.735Z,29.33
2018-11-11T05:55:17.139Z,103.43
2018-11-11T05:57:46.536Z,29.13
2018-11-11T06:00:17.173Z,18.13
2018-11-11T06:02:46.587Z,8.87
2018-11-11T06:05:16.477Z,28.37
2018-11-11T06:07:45.906Z,10.83
2018-11-11T06:10:15.822Z,8.50
2018-11-11T06:12:45.197Z,31.43
2018-11-11T06:15:15.108Z,55.27
2018-11-11T06:17:44.659Z,8.80
2018-11-11T06:20:15.237Z,6.97
2018-11-11T06:22:44.692Z,43.23
2018-11-11T06:25:14.064Z,38.83
2018-11-11T06:27:44.070Z,26.00
2018-11-11T06:30:13.939Z,13.33
2018-11-11T06:32:43.490Z,9.33
2018-11-11T06:35:12.987Z,15.60
2018-11-11T06:37:42.548Z,16.33
2018-11-11T06:40:13.160Z,10.90
2018-11-11T06:42:44.041Z,19.00
2018-11-11T06:45:15.534Z,14.07
2018-11-11T06:47:45.481Z,55.60
2018-11-11T06:50:16.314Z,102.17
2018-11-11T06:52:45.735Z,120.67
2018-11-11T06:55:15.079Z,181.07
2018-11-11T06:57:44.794Z,161.97
2018-11-11T07:00:15.314Z,39.80
2018-11-11T07:02:55.778Z,199.17
2018-11-11T07:05:25.350Z,77.60
2018-11-11T07:07:54.814Z,39.87
2018-11-11T07:10:24.860Z,139.30
2018-11-11T07:12:54.506Z,23.97
2018-11-11T07:15:24.939Z,195.73
2018-11-11T07:17:54.816Z,111.73
2018-11-11T07:20:24.536Z,58.37
2018-11-11T07:22:54.765Z,39.93
2018-11-11T07:25:24.601Z,33.03
2018-11-11T07:27:55.216Z,96.57
2018-11-11T07:30:25.383Z,154.63
2018-11-11T07:32:54.682Z,67.87
2018-11-11T07:35:24.038Z,195.90
2018-11-11T07:37:54.474Z,242.63
2018-11-11T07:40:23.828Z,135.33
2018-11-11T07:42:53.175Z,116.10
2018-11-11T07:45:22.653Z,124.33
2018-11-11T07:47:52.026Z,60.67
2018-11-11T07:50:21.520Z,19.23
2018-11-11T07:52:51.790Z,47.20
2018-11-11T07:55:21.374Z,10.40
2018-11-11T07:57:50.865Z,140.80
2018-11-11T08:00:20.188Z,88.87
2018-11-11T08:02:49.992Z,71.40
2018-11-11T08:05:26.220Z,170.10
2018-11-11T08:07:55.772Z,13.53
2018-11-11T08:10:36.437Z,88.93
2018-11-11T08:13:06.046Z,159.63
2018-11-11T08:15:37.879Z,110.37
2018-11-11T08:18:07.380Z,151.10
2018-11-11T08:20:37.991Z,39.20
2018-11-11T08:23:07.540Z,22.03
2018-11-11T08:25:36.967Z,23.93
2018-11-11T08:28:07.200Z,28.27
2018-11-11T08:30:36.824Z,168.93
2018-11-11T08:33:07.059Z,92.23
2018-11-11T08:35:36.325Z,15.93
2018-11-11T08:38:05.615Z,28.03
2018-11-11T08:40:35.044Z,9.87
2018-11-11T08:43:04.225Z,72.37
2018-11-11T08:45:34.572Z,105.73
2018-11-11T08:48:03.959Z,51.80
2018-11-11T08:50:33.227Z,148.80
2018-11-11T08:53:02.594Z,349.07
2018-11-11T08:55:32.611Z,40.27
2018-11-11T08:58:03.372Z,204.60
2018-11-11T09:00:33.520Z,270.37
2018-11-11T09:03:03.538Z,144.07
2018-11-11T09:05:33.288Z,114.37
2018-11-11T09:08:03.093Z,181.67
2018-11-11T09:10:32.493Z,95.50
2018-11-11T09:13:05.739Z,11.13
2018-11-11T09:15:35.197Z,44.83
2018-11-11T09:18:04.736Z,35.33
2018-11-11T09:20:34.653Z,16.33
2018-11-11T09:23:03.973Z,10.77
2018-11-11T09:25:33.571Z,11.13
2018-11-11T09:28:02.810Z,12.30
2018-11-11T09:30:32.597Z,5.10
2018-11-11T09:33:02.067Z,6.00
2018-11-11T09:35:31.511Z,4.70
2018-11-11T09:38:00.764Z,4.30
2018-11-11T09:40:31.204Z,3.30
2018-11-11T09:43:00.600Z,6.43
2018-11-11T09:45:30.140Z,4.30
2018-11-11T09:47:59.635Z,3.10
2018-11-11T09:50:29.934Z,4.43
2018-11-11T09:52:59.510Z,8.20
2018-11-11T09:55:30.014Z,5.30
2018-11-11T09:57:59.433Z,5.97
2018-11-11T10:00:28.859Z,4.40
2018-11-11T10:05:05.840Z,5.07
2018-11-11T10:07:50.209Z,4.70
2018-11-11T10:10:24.652Z,6.07
2018-11-11T10:13:02.746Z,4.20
2018-11-11T10:15:38.979Z,3.60
2018-11-11T10:18:20.197Z,2.87
2018-11-11T10:21:00.588Z,3.20
2018-11-11T10:23:44.566Z,3.50
2018-11-11T10:26:21.032Z,5.10
2018-11-11T10:28:59.015Z,5.10
2018-11-11T10:31:34.239Z,4.00
2018-11-11T10:34:08.378Z,2.53
2018-11-11T10:36:43.081Z,4.80
2018-11-11T10:39:17.342Z,3.10
2018-11-11T10:42:26.903Z,3.90
2018-11-11T10:45:03.967Z,3.10
2018-11-11T10:47:37.803Z,3.80
2018-11-11T10:50:10.132Z,5.80
2018-11-11T10:52:39.751Z,5.80
2018-11-11T10:55:09.619Z,3.93
2018-11-11T10:57:40.193Z,3.17
2018-11-11T11:02:17.145Z,4.03
2018-11-11T11:04:51.474Z,7.40
2018-11-11T11:07:21.147Z,4.60
2018-11-11T11:09:51.831Z,4.00
2018-11-11T11:12:21.859Z,5.53
2018-11-11T11:14:51.417Z,3.67
2018-11-11T11:17:20.851Z,5.60
2018-11-11T11:19:51.137Z,3.57
2018-11-11T11:22:20.993Z,4.20
2018-11-11T11:24:50.648Z,3.80
2018-11-11T11:27:20.242Z,4.43
2018-11-11T11:29:50.066Z,3.70
2018-11-11T11:32:19.679Z,4.87
2018-11-11T11:34:50.057Z,4.87
2018-11-11T11:37:19.458Z,10.33
2018-11-11T11:39:48.794Z,12.10
2018-11-11T11:42:18.252Z,12.63
2018-11-11T11:44:47.606Z,12.23
2018-11-11T11:47:17.840Z,16.60
2018-11-11T11:49:47.132Z,10.13
2018-11-11T11:52:16.612Z,7.50
2018-11-11T11:54:47.166Z,5.90
2018-11-11T11:57:17.086Z,8.53
2018-11-11T11:59:46.450Z,4.10
2018-11-11T12:02:15.664Z,3.10
2018-11-11T12:04:44.963Z,7.17
2018-11-11T12:07:14.389Z,5.30
2018-11-11T12:09:43.945Z,6.10
2018-11-11T12:12:13.376Z,8.13
2018-11-11T12:14:42.919Z,5.77
2018-11-11T12:17:13.594Z,6.50
2018-11-11T12:19:44.615Z,10.30
2018-11-11T12:22:14.011Z,6.20
2018-11-11T12:24:43.539Z,5.57
2018-11-11T12:27:12.822Z,21.87
2018-11-11T12:29:42.154Z,5.20
2018-11-11T12:32:11.524Z,8.83
2018-11-11T12:34:40.905Z,3.70
2018-11-11T12:37:10.393Z,8.13
2018-11-11T12:39:40.234Z,5.20
2018-11-11T12:42:09.700Z,11.17
2018-11-11T12:44:40.271Z,5.60
2018-11-11T12:47:10.148Z,5.50
2018-11-11T12:49:39.601Z,11.33
2018-11-11T12:52:08.997Z,9.93
2018-11-11T12:54:38.373Z,14.43
2018-11-11T12:57:08.046Z,4.60
2018-11-11T12:59:37.918Z,5.87
2018-11-11T13:02:07.604Z,6.60
2018-11-11T13:04:37.191Z,4.40
2018-11-11T13:07:07.416Z,5.47
2018-11-11T13:09:36.917Z,5.40
2018-11-11T13:12:07.021Z,5.03
2018-11-11T13:14:36.478Z,6.67
2018-11-11T13:17:05.860Z,5.53
2018-11-11T13:19:35.321Z,4.30
2018-11-11T13:22:04.917Z,10.53
2018-11-11T13:24:34.179Z,6.80
2018-11-11T13:27:03.536Z,10.07
2018-11-11T13:29:33.246Z,6.07
2018-11-11T13:32:03.174Z,8.37
2018-11-11T13:34:32.849Z,5.70
2018-11-11T13:37:02.445Z,7.47
2018-11-11T13:39:31.843Z,8.70
2018-11-11T13:42:01.589Z,7.13
2018-11-11T13:44:31.338Z,5.43
2018-11-11T13:47:00.806Z,6.13
2018-11-11T13:49:30.267Z,7.40
2018-11-11T13:52:00.063Z,7.20
2018-11-11T13:54:29.740Z,4.20
2018-11-11T13:56:59.202Z,4.67
2018-11-11T13:59:28.642Z,6.57
2018-11-11T14:01:58.995Z,4.00
2018-11-11T14:04:28.390Z,4.47
2018-11-11T14:06:57.882Z,6.17
2018-11-11T14:09:27.243Z,6.07
2018-11-11T14:11:56.607Z,8.27
2018-11-11T14:14:27.324Z,9.87
2018-11-11T14:16:56.545Z,6.03
2018-11-11T14:19:26.094Z,3.93
2018-11-11T14:21:55.857Z,7.43
2018-11-11T14:24:26.031Z,7.83
2018-11-11T14:26:55.582Z,15.87
2018-11-11T14:29:26.242Z,4.50
2018-11-11T14:31:55.913Z,5.20
2018-11-11T14:34:25.584Z,19.30
2018-11-11T14:36:54.942Z,18.27
2018-11-11T14:39:24.322Z,18.80
2018-11-11T14:41:53.867Z,16.73
2018-11-11T14:44:23.391Z,21.07
2018-11-11T14:46:53.333Z,17.83
2018-11-11T14:49:22.888Z,17.37
2018-11-11T14:51:52.279Z,17.23
2018-11-11T14:54:23.124Z,9.73
2018-11-11T14:56:52.555Z,15.00
2018-11-11T14:59:22.042Z,15.93
2018-11-11T15:01:51.513Z,10.27
2018-11-11T15:04:21.033Z,9.93
2018-11-11T15:06:51.511Z,11.30
2018-11-11T15:09:20.941Z,19.03
2018-11-11T15:11:50.531Z,22.47
2018-11-11T15:14:20.134Z,11.70
2018-11-11T15:16:49.586Z,9.33
2018-11-11T15:19:19.184Z,5.23
2018-11-11T15:21:48.612Z,2.97
2018-11-11T15:24:18.023Z,6.27
2018-11-11T15:26:47.759Z,3.70
2018-11-11T15:29:17.219Z,6.73
2018-11-11T15:31:47.453Z,3.10
2018-11-11T15:34:18.269Z,7.10
2018-11-11T15:36:47.744Z,2.80
2018-11-11T15:39:17.795Z,3.73
2018-11-11T15:41:47.223Z,2.77
2018-11-11T15:44:16.712Z,5.43
2018-11-11T15:46:46.273Z,2.73
2018-11-11T15:49:16.079Z,2.27
2018-11-11T15:51:45.469Z,2.10
2018-11-11T15:54:18.257Z,5.60
2018-11-11T15:56:47.719Z,5.80
2018-11-11T15:59:17.348Z,3.90
2018-11-11T16:01:46.920Z,4.17
2018-11-11T16:04:16.319Z,3.10
2018-11-11T16:06:45.791Z,8.40
2018-11-11T16:09:15.278Z,2.30
2018-11-11T16:11:44.902Z,6.00
2018-11-11T16:14:15.397Z,8.87
2018-11-11T16:16:45.892Z,5.63
2018-11-11T16:19:15.940Z,2.50
2018-11-11T16:21:45.378Z,3.43
2018-11-11T16:24:15.867Z,3.83
2018-11-11T16:26:45.219Z,8.77
2018-11-11T16:29:14.770Z,6.10
2018-11-11T16:31:44.821Z,3.17
2018-11-11T16:34:14.384Z,5.80
2018-11-11T16:36:45.873Z,7.20
2018-11-11T16:39:15.431Z,11.20
2018-11-11T16:41:45.047Z,5.23
2018-11-11T16:44:15.465Z,7.27
2018-11-11T16:46:46.740Z,5.87
2018-11-11T16:49:17.306Z,4.10
2018-11-11T16:51:49.678Z,10.90
2018-11-11T16:54:19.564Z,6.90
2018-11-11T16:56:49.877Z,6.00
2018-11-11T16:59:20.124Z,23.90
2018-11-11T17:01:50.781Z,27.40
2018-11-11T17:04:20.533Z,25.67
2018-11-11T17:06:50.964Z,17.13
2018-11-11T17:09:21.889Z,9.53
2018-11-11T17:11:52.186Z,8.27
2018-11-11T17:14:23.523Z,16.73
2018-11-11T17:16:54.837Z,5.87
2018-11-11T17:19:25.919Z,9.30
2018-11-11T17:21:55.902Z,7.17
2018-11-11T17:24:26.933Z,5.37
2018-11-11T17:27:00.222Z,10.80
2018-11-11T17:29:31.688Z,6.27
2018-11-11T17:32:02.585Z,4.20
2018-11-11T17:34:33.653Z,9.40
2018-11-11T17:37:04.948Z,3.83
2018-11-11T17:39:36.337Z,12.40
2018-11-11T17:42:06.589Z,4.73
2018-11-11T17:44:36.829Z,9.17
2018-11-11T17:47:07.556Z,17.43
2018-11-11T17:49:39.205Z,11.97
2018-11-11T17:52:09.086Z,10.63
2018-11-11T17:54:38.992Z,11.10
2018-11-11T17:57:08.455Z,14.57
2018-11-11T17:59:38.694Z,17.63
2018-11-11T18:02:08.627Z,13.90
2018-11-11T18:04:38.616Z,12.90
2018-11-11T18:07:08.265Z,6.23
2018-11-11T18:09:38.060Z,8.80
2018-11-11T18:12:10.008Z,4.97
2018-11-11T18:14:39.594Z,5.80
2018-11-11T18:17:09.947Z,4.20
2018-11-11T18:19:39.422Z,5.13
2018-11-11T18:22:10.111Z,7.43
2018-11-11T18:24:40.356Z,5.43
2018-11-11T18:27:11.575Z,5.00
2018-11-11T18:29:43.028Z,5.70
2018-11-11T18:32:13.144Z,8.10
2018-11-11T18:34:43.788Z,7.40
2018-11-11T18:37:13.759Z,10.43
2018-11-11T18:39:44.720Z,2.63
2018-11-11T18:42:14.883Z,11.33
2018-11-11T18:44:46.540Z,15.27
2018-11-11T18:47:17.062Z,12.70
2018-11-11T18:49:47.502Z,13.83
2018-11-11T18:52:17.236Z,18.50
2018-11-11T18:54:46.929Z,24.23
2018-11-11T18:57:17.230Z,14.13
2018-11-11T18:59:49.365Z,23.00
2018-11-11T19:02:20.127Z,23.20
2018-11-11T19:04:51.550Z,31.07
2018-11-11T19:07:21.649Z,39.77
2018-11-11T19:09:54.220Z,74.37
2018-11-11T19:12:25.549Z,46.83
2018-11-11T19:14:55.979Z,29.77
2018-11-11T19:17:28.413Z,30.77
2018-11-11T19:20:00.142Z,15.93
2018-11-11T19:22:31.763Z,18.83
2018-11-11T19:25:02.573Z,10.20
2018-11-11T19:27:34.868Z,11.33
2018-11-11T19:30:06.143Z,8.23
2018-11-11T19:32:35.998Z,7.83
2018-11-11T19:35:06.444Z,9.83
2018-11-11T19:37:35.832Z,5.83
2018-11-11T19:40:06.044Z,4.77
2018-11-11T19:42:36.082Z,5.43
2018-11-11T19:45:07.441Z,13.80
2018-11-11T19:47:37.799Z,15.40
2018-11-11T19:50:08.353Z,10.43
2018-11-11T19:52:38.262Z,7.50
2018-11-11T19:55:10.144Z,12.83
2018-11-11T19:57:41.547Z,9.30
2018-11-11T20:07:03.804Z,12.23
2018-11-11T20:09:34.820Z,9.10
2018-11-11T20:12:04.735Z,15.20
2018-11-11T20:14:34.946Z,8.77
2018-11-11T20:17:05.772Z,7.07
2018-11-11T20:19:35.752Z,6.70
2018-11-11T20:22:05.583Z,12.93
2018-11-11T20:24:35.010Z,13.10
2018-11-11T20:27:04.754Z,8.63
2018-11-11T20:29:34.821Z,10.77
2018-11-11T20:32:05.343Z,7.40
2018-11-11T20:34:35.515Z,10.10
2018-11-11T20:37:09.507Z,11.67
2018-11-11T20:39:39.721Z,7.93
2018-11-11T20:42:09.636Z,14.53
2018-11-11T20:44:39.497Z,7.20
2018-11-11T20:47:09.054Z,6.50
2018-11-11T20:49:40.144Z,6.00
2018-11-11T20:52:09.535Z,6.10
2018-11-11T20:54:39.110Z,7.43
2018-11-11T20:57:10.384Z,6.80
2018-11-11T20:59:40.917Z,16.77
2018-11-11T21:02:10.274Z,14.67
2018-11-11T21:04:40.623Z,83.67
2018-11-11T21:07:10.189Z,70.30
2018-11-11T21:09:40.413Z,50.60
2018-11-11T21:12:10.080Z,35.67
2018-11-11T21:14:39.721Z,37.93
2018-11-11T21:17:09.305Z,32.57
2018-11-11T21:19:38.980Z,23.50
2018-11-11T21:22:12.619Z,28.40
2018-11-11T21:24:42.768Z,22.93
2018-11-11T21:27:12.239Z,30.03
2018-11-11T21:29:41.757Z,35.60
2018-11-11T21:32:12.579Z,33.53
2018-11-11T21:34:42.682Z,28.23
2018-11-11T21:37:12.315Z,16.73
2018-11-11T21:39:42.064Z,21.00
2018-11-11T21:42:12.909Z,17.73
2018-11-11T21:44:42.491Z,15.03
2018-11-11T21:47:11.938Z,19.10
2018-11-11T21:49:41.458Z,11.43
2018-11-11T21:52:10.917Z,11.87
2018-11-11T21:54:40.524Z,12.67
2018-11-11T21:57:09.929Z,14.30
2018-11-11T21:59:39.528Z,14.80
2018-11-11T22:02:09.262Z,17.23
2018-11-11T22:04:38.683Z,8.40
2018-11-11T22:07:08.248Z,9.90
2018-11-11T22:09:38.436Z,21.00
2018-11-11T22:12:07.851Z,15.53
2018-11-11T22:14:37.288Z,8.20
2018-11-11T22:17:07.894Z,5.87
2018-11-11T22:19:38.282Z,6.60
2018-11-11T22:22:08.726Z,5.43
2018-11-11T22:24:37.912Z,3.57
2018-11-11T22:27:07.804Z,4.80
2018-11-11T22:29:37.288Z,5.20
2018-11-11T22:32:06.723Z,5.70
2018-11-11T22:34:36.229Z,13.57
2018-11-11T22:37:05.847Z,11.07
2018-11-11T22:39:35.576Z,15.70
2018-11-11T22:42:04.857Z,23.50
2018-11-11T22:44:34.248Z,11.17
2018-11-11T22:47:03.791Z,14.63
2018-11-11T22:49:33.325Z,11.67
2018-11-11T22:52:02.685Z,10.27
2018-11-11T22:54:32.140Z,13.40
2018-11-11T22:57:01.579Z,15.63
2018-11-11T22:59:31.818Z,16.70
2018-11-11T23:02:01.223Z,21.43
2018-11-11T23:04:30.633Z,24.03
2018-11-11T23:07:02.685Z,14.37
2018-11-11T23:09:31.907Z,12.53
2018-11-11T23:12:01.288Z,7.70
2018-11-11T23:14:30.508Z,7.50
2018-11-11T23:16:59.783Z,13.17
2018-11-11T23:19:29.228Z,9.17
2018-11-11T23:21:58.960Z,9.70
2018-11-11T23:24:28.397Z,8.70
2018-11-11T23:26:57.890Z,7.13
2018-11-11T23:29:27.328Z,8.30
2018-11-11T23:31:56.769Z,7.50
2018-11-11T23:34:26.132Z,7.00
2018-11-11T23:36:55.542Z,5.80
2018-11-11T23:39:25.808Z,5.03
2018-11-11T23:41:56.060Z,1.90
2018-11-11T23:44:25.269Z,2.23
2018-11-11T23:46:54.769Z,3.87
2018-11-11T23:49:24.376Z,2.93
2018-11-11T23:51:54.736Z,7.00
2018-11-11T23:54:24.068Z,6.30
2018-11-11T23:56:53.389Z,5.60
2018-11-11T23:59:22.808Z,16.93
